createdAt,value
2023-04-19T00:00:52.134Z,9.99
2023-04-19T00:03:20.194Z,9.00
2023-04-19T00:05:48.177Z,8.93
2023-04-19T00:08:15.813Z,9.30
2023-04-19T00:10:43.463Z,9.53
2023-04-19T00:13:11.172Z,9.47
2023-04-19T00:15:40.359Z,8.93
2023-04-19T00:18:08.138Z,8.85
2023-04-19T00:20:36.286Z,8.82
2023-04-19T00:23:03.958Z,8.73
2023-04-19T00:25:32.050Z,8.64
2023-04-19T00:27:59.676Z,8.94
2023-04-19T00:30:27.321Z,8.69
2023-04-19T00:32:56.406Z,9.53
2023-04-19T00:35:24.135Z,8.84
2023-04-19T00:37:51.788Z,8.87
2023-04-19T00:40:19.532Z,9.44
2023-04-19T00:42:47.189Z,8.54
2023-04-19T00:45:15.464Z,9.24
2023-04-19T00:47:43.570Z,9.09
2023-04-19T00:50:14.184Z,8.17
2023-04-19T00:52:42.045Z,8.70
2023-04-19T00:55:09.872Z,8.30
2023-04-19T00:57:38.225Z,8.54
2023-04-19T01:00:08.196Z,8.04
2023-04-19T01:02:36.337Z,8.51
2023-04-19T01:05:04.715Z,8.81
2023-04-19T01:07:34.457Z,8.60
2023-04-19T01:10:02.199Z,9.07
2023-04-19T01:12:30.195Z,8.25
2023-04-19T01:14:57.814Z,8.27
2023-04-19T01:17:27.100Z,8.38
2023-04-19T01:20:00.470Z,8.46
2023-04-19T01:22:30.062Z,8.54
2023-04-19T01:24:58.578Z,8.54
2023-04-19T01:27:26.272Z,8.24
2023-04-19T01:29:53.988Z,8.20
2023-04-19T01:32:21.663Z,8.42
2023-04-19T01:34:50.291Z,8.12
2023-04-19T01:37:18.024Z,8.59
2023-04-19T01:39:47.047Z,8.29
2023-04-19T01:42:14.692Z,8.21
2023-04-19T01:44:42.404Z,8.41
2023-04-19T01:47:10.120Z,8.61
2023-04-19T01:49:38.277Z,8.88
2023-04-19T01:52:06.006Z,9.15
2023-04-19T01:54:33.656Z,9.01
2023-04-19T01:57:02.635Z,8.99
2023-04-19T01:59:30.241Z,8.43
2023-04-19T02:01:57.934Z,8.40
2023-04-19T02:04:25.692Z,8.99
2023-04-19T02:06:53.331Z,8.48
2023-04-19T02:09:21.004Z,9.24
2023-04-19T02:11:48.664Z,9.57
2023-04-19T02:14:17.796Z,8.98
2023-04-19T02:16:45.555Z,9.20
2023-04-19T02:19:14.037Z,8.76
2023-04-19T02:21:41.657Z,9.39
2023-04-19T02:24:09.466Z,9.39
2023-04-19T02:26:37.096Z,9.64
2023-04-19T02:29:06.369Z,8.95
2023-04-19T02:31:37.146Z,8.03
2023-04-19T02:34:04.846Z,8.71
2023-04-19T02:36:32.503Z,8.54
2023-04-19T02:39:00.320Z,8.77
2023-04-19T02:41:27.928Z,8.87
2023-04-19T02:43:56.253Z,9.19
2023-04-19T02:46:23.917Z,9.09
2023-04-19T02:48:52.979Z,7.81
2023-04-19T02:51:20.633Z,8.26
2023-04-19T02:53:48.243Z,8.59
2023-04-19T02:56:16.431Z,8.86
2023-04-19T02:58:44.116Z,8.80
2023-04-19T03:01:11.822Z,9.01
2023-04-19T03:03:39.533Z,8.87
2023-04-19T03:06:09.361Z,8.66
2023-04-19T03:08:37.394Z,8.24
2023-04-19T03:11:05.123Z,8.44
2023-04-19T03:13:32.748Z,9.07
2023-04-19T03:16:00.511Z,8.49
2023-04-19T03:18:28.138Z,9.01
2023-04-19T03:20:55.786Z,8.49
2023-04-19T03:23:24.931Z,8.31
2023-04-19T03:25:52.588Z,8.32
2023-04-19T03:28:20.372Z,8.37
2023-04-19T03:30:48.173Z,8.68
2023-04-19T03:33:16.018Z,9.27
2023-04-19T03:35:44.767Z,9.07
2023-04-19T03:38:12.448Z,8.86
2023-04-19T03:40:41.424Z,8.80
2023-04-19T03:43:09.059Z,8.24
2023-04-19T03:45:36.667Z,7.96
2023-04-19T03:48:04.440Z,8.43
2023-04-19T03:50:33.823Z,7.95
2023-04-19T03:53:01.489Z,7.51
2023-04-19T03:55:29.228Z,7.65
2023-04-19T03:57:58.498Z,8.18
2023-04-19T04:00:27.379Z,8.04
2023-04-19T04:02:55.122Z,8.74
2023-04-19T04:05:23.119Z,8.54
2023-04-19T04:07:50.759Z,8.86
2023-04-19T04:10:18.532Z,9.41
2023-04-19T04:12:46.176Z,9.35
2023-04-19T04:15:15.219Z,7.96
2023-04-19T04:17:42.861Z,9.20
2023-04-19T04:20:13.285Z,9.36
2023-04-19T04:22:43.097Z,8.82
2023-04-19T04:25:11.184Z,9.32
2023-04-19T04:27:39.281Z,9.42
2023-04-19T04:30:08.277Z,9.40
2023-04-19T04:32:37.268Z,9.42
2023-04-19T04:35:06.195Z,9.57
2023-04-19T04:37:34.384Z,9.79
2023-04-19T04:40:02.311Z,9.88
2023-04-19T04:42:31.399Z,9.74
2023-04-19T04:45:01.522Z,9.85
2023-04-19T04:47:32.262Z,9.71
2023-04-19T04:50:02.377Z,9.91
2023-04-19T04:52:30.704Z,10.22
2023-04-19T04:54:58.377Z,10.39
2023-04-19T04:57:25.973Z,10.13
2023-04-19T04:59:53.581Z,10.15
2023-04-19T05:02:22.724Z,9.46
2023-04-19T05:04:50.518Z,9.11
2023-04-19T05:07:19.654Z,10.35
2023-04-19T05:09:47.253Z,12.22
2023-04-19T05:12:15.279Z,13.49
2023-04-19T05:14:42.879Z,15.47
2023-04-19T05:17:10.531Z,16.84
2023-04-19T05:19:38.190Z,17.12
2023-04-19T05:22:06.310Z,16.78
2023-04-19T05:24:35.267Z,13.70
2023-04-19T05:27:03.024Z,13.85
2023-04-19T05:29:30.695Z,15.52
2023-04-19T05:31:58.827Z,15.36
2023-04-19T05:34:26.531Z,16.86
2023-04-19T05:36:54.162Z,17.45
2023-04-19T05:39:21.834Z,14.09
2023-04-19T05:41:50.862Z,14.86
2023-04-19T05:44:18.553Z,13.41
2023-04-19T05:46:46.235Z,13.41
2023-04-19T05:49:13.885Z,14.74
2023-04-19T05:51:41.529Z,12.12
2023-04-19T05:54:12.492Z,12.58
2023-04-19T05:56:40.260Z,12.76
2023-04-19T05:59:11.436Z,11.52
2023-04-19T06:01:39.168Z,13.39
2023-04-19T06:04:07.028Z,17.21
2023-04-19T06:06:34.677Z,17.93
2023-04-19T06:09:02.376Z,13.63
2023-04-19T06:11:38.787Z,18.71
2023-04-19T06:14:07.054Z,16.97
2023-04-19T06:16:36.044Z,14.05
2023-04-19T06:19:03.828Z,13.94
2023-04-19T06:21:31.585Z,15.24
2023-04-19T06:23:59.425Z,18.01
2023-04-19T06:26:27.221Z,17.63
2023-04-19T06:28:54.924Z,19.12
2023-04-19T06:31:22.727Z,20.80
2023-04-19T06:33:51.822Z,18.30
2023-04-19T06:36:19.516Z,16.96
2023-04-19T06:38:47.246Z,18.21
2023-04-19T06:41:14.897Z,17.23
2023-04-19T06:43:42.885Z,15.72
2023-04-19T06:46:10.870Z,15.56
2023-04-19T06:48:39.190Z,15.87
2023-04-19T06:51:08.279Z,14.92
2023-04-19T06:53:36.694Z,15.13
2023-04-19T06:56:05.249Z,15.45
2023-04-19T06:58:35.205Z,17.15
2023-04-19T07:01:04.637Z,19.58
2023-04-19T07:03:32.949Z,17.34
2023-04-19T07:06:00.809Z,16.19
2023-04-19T07:08:42.440Z,18.97
2023-04-19T07:11:16.685Z,17.44
2023-04-19T07:13:44.303Z,15.65
2023-04-19T07:16:12.504Z,16.45
2023-04-19T07:18:40.233Z,18.49
2023-04-19T07:21:07.854Z,16.94
2023-04-19T07:23:36.961Z,21.05
2023-04-19T07:26:04.935Z,17.39
2023-04-19T07:28:32.679Z,16.51
2023-04-19T07:31:00.950Z,19.74
2023-04-19T07:33:28.974Z,21.11
2023-04-19T07:35:56.885Z,20.10
2023-04-19T07:38:24.822Z,19.58
2023-04-19T07:40:53.852Z,19.03
2023-04-19T07:43:21.536Z,20.66
2023-04-19T07:45:49.231Z,18.77
2023-04-19T07:48:16.941Z,19.24
2023-04-19T07:50:44.705Z,19.25
2023-04-19T07:53:12.354Z,19.08
2023-04-19T07:55:40.046Z,18.40
2023-04-19T07:58:09.357Z,19.56
2023-04-19T08:00:37.929Z,20.64
2023-04-19T08:03:05.814Z,19.97
2023-04-19T08:05:33.877Z,18.67
2023-04-19T08:08:01.540Z,16.66
2023-04-19T08:10:30.492Z,17.61
2023-04-19T08:13:06.000Z,18.96
2023-04-19T08:18:07.406Z,21.06
2023-04-19T08:20:35.340Z,19.48
2023-04-19T08:23:14.007Z,17.99
2023-04-19T08:25:49.061Z,18.85
2023-04-19T08:28:17.031Z,16.49
2023-04-19T08:30:46.048Z,16.54
2023-04-19T08:33:13.698Z,17.36
2023-04-19T08:35:42.083Z,18.34
2023-04-19T08:38:09.987Z,18.08
2023-04-19T08:40:42.667Z,17.73
2023-04-19T08:43:10.912Z,17.78
2023-04-19T08:45:39.269Z,17.33
2023-04-19T08:48:11.739Z,18.51
2023-04-19T08:50:56.009Z,18.08
2023-04-19T08:53:30.155Z,18.54
2023-04-19T08:58:41.365Z,18.42
2023-04-19T09:01:33.840Z,19.12
2023-04-19T09:04:26.036Z,19.15
2023-04-19T09:06:53.101Z,17.28
2023-04-19T09:11:53.508Z,18.05
2023-04-19T09:14:24.396Z,16.16
2023-04-19T09:16:53.024Z,18.04
2023-04-19T09:19:25.278Z,19.13
2023-04-19T09:21:54.843Z,15.23
2023-04-19T09:25:15.414Z,14.41
2023-04-19T09:27:29.180Z,15.47
2023-04-19T09:29:57.601Z,14.63
2023-04-19T09:32:25.900Z,14.55
2023-04-19T09:34:56.379Z,15.42
2023-04-19T09:39:55.405Z,15.15
2023-04-19T09:42:47.305Z,14.46
2023-04-19T09:45:29.392Z,14.88
2023-04-19T09:48:07.454Z,15.11
2023-04-19T09:50:50.537Z,15.22
2023-04-19T09:53:22.767Z,15.45
2023-04-19T09:56:00.215Z,15.50
2023-04-19T09:58:41.742Z,15.73
2023-04-19T10:01:18.373Z,16.00
2023-04-19T10:03:48.850Z,15.99
2023-04-19T10:08:51.467Z,15.30
2023-04-19T10:11:20.075Z,15.18
2023-04-19T10:13:49.925Z,15.37
2023-04-19T10:16:19.961Z,14.60
2023-04-19T10:18:49.872Z,14.72
2023-04-19T10:21:21.131Z,14.71
2023-04-19T10:23:49.585Z,15.60
2023-04-19T10:26:17.355Z,15.04
2023-04-19T10:28:45.011Z,14.64
2023-04-19T10:31:13.975Z,14.67
2023-04-19T10:33:42.622Z,14.75
2023-04-19T10:36:11.750Z,14.35
2023-04-19T10:38:43.393Z,15.20
2023-04-19T10:41:17.111Z,14.64
2023-04-19T10:43:48.317Z,15.01
2023-04-19T10:46:18.401Z,14.69
2023-04-19T10:48:54.533Z,14.67
2023-04-19T10:51:24.577Z,14.86
2023-04-19T10:53:55.997Z,15.10
2023-04-19T10:57:11.578Z,15.70
2023-04-19T10:59:40.364Z,14.98
2023-04-19T11:02:29.158Z,15.07
2023-04-19T11:05:02.210Z,14.81
2023-04-19T11:07:29.934Z,14.66
2023-04-19T11:09:58.953Z,14.56
2023-04-19T11:12:26.597Z,14.71
2023-04-19T11:14:57.423Z,15.06
2023-04-19T11:17:27.700Z,15.09
2023-04-19T11:19:56.841Z,14.70
2023-04-19T11:22:32.247Z,15.96
2023-04-19T11:25:08.216Z,15.69
2023-04-19T11:27:36.026Z,15.06
2023-04-19T11:30:05.678Z,15.40
2023-04-19T11:32:33.813Z,14.66
2023-04-19T11:35:07.684Z,15.69
2023-04-19T11:37:36.501Z,15.28
2023-04-19T11:40:06.372Z,15.11
2023-04-19T11:42:36.432Z,14.69
2023-04-19T11:45:05.208Z,15.26
2023-04-19T11:47:34.559Z,15.07
2023-04-19T11:50:36.094Z,15.22
2023-04-19T11:53:15.362Z,16.20
2023-04-19T11:55:47.579Z,14.81
2023-04-19T11:58:31.091Z,14.70
2023-04-19T12:01:04.053Z,15.06
2023-04-19T12:03:31.952Z,15.44
2023-04-19T12:06:03.353Z,14.82
2023-04-19T12:08:32.859Z,14.99
2023-04-19T12:11:01.093Z,14.78
2023-04-19T12:13:31.342Z,15.44
2023-04-19T12:15:59.679Z,15.71
2023-04-19T12:18:27.849Z,16.10
2023-04-19T12:20:55.618Z,15.39
2023-04-19T12:23:23.254Z,15.12
2023-04-19T12:25:51.078Z,15.68
2023-04-19T12:28:18.707Z,16.58
2023-04-19T12:30:47.658Z,15.76
2023-04-19T12:33:15.424Z,15.02
2023-04-19T12:35:44.898Z,15.15
2023-04-19T12:38:12.552Z,14.61
2023-04-19T12:40:40.190Z,15.11
2023-04-19T12:43:08.774Z,14.80
2023-04-19T12:45:36.435Z,15.24
2023-04-19T12:48:07.077Z,15.15
2023-04-19T12:50:34.842Z,15.12
2023-04-19T12:53:02.614Z,15.76
2023-04-19T12:55:30.257Z,14.79
2023-04-19T12:57:57.935Z,15.29
2023-04-19T13:00:25.919Z,15.03
2023-04-19T13:02:53.694Z,14.84
2023-04-19T13:05:23.102Z,14.58
2023-04-19T13:07:50.752Z,14.62
2023-04-19T13:10:18.560Z,15.11
2023-04-19T13:12:46.207Z,15.55
2023-04-19T13:15:13.842Z,14.86
2023-04-19T13:17:41.485Z,14.43
2023-04-19T13:20:10.532Z,14.93
2023-04-19T13:22:39.588Z,14.80
2023-04-19T13:25:08.527Z,14.77
2023-04-19T13:27:36.420Z,15.55
2023-04-19T13:30:04.269Z,15.28
2023-04-19T13:32:32.047Z,14.31
2023-04-19T13:34:59.686Z,14.57
2023-04-19T13:37:27.335Z,15.66
2023-04-19T13:40:07.063Z,14.47
2023-04-19T13:42:42.976Z,14.36
2023-04-19T13:45:11.321Z,14.42
2023-04-19T13:47:39.119Z,14.94
2023-04-19T13:50:08.252Z,14.39
2023-04-19T13:52:37.347Z,14.37
2023-04-19T13:55:06.861Z,14.45
2023-04-19T13:57:34.579Z,15.49
2023-04-19T14:00:02.625Z,15.19
2023-04-19T14:02:30.488Z,14.83
2023-04-19T14:04:59.610Z,14.34
2023-04-19T14:07:27.401Z,15.06
2023-04-19T14:09:55.738Z,14.71
2023-04-19T14:12:24.881Z,14.61
2023-04-19T14:14:52.488Z,14.41
2023-04-19T14:17:20.623Z,14.28
2023-04-19T14:19:48.248Z,15.04
2023-04-19T14:22:17.598Z,14.41
2023-04-19T14:24:46.203Z,14.16
2023-04-19T14:27:13.913Z,14.25
2023-04-19T14:29:42.850Z,13.87
2023-04-19T14:32:21.325Z,14.99
2023-04-19T14:34:51.734Z,14.79
2023-04-19T14:37:19.502Z,14.80
2023-04-19T14:39:47.509Z,14.36
2023-04-19T14:42:15.185Z,14.47
2023-04-19T14:44:45.641Z,13.51
2023-04-19T14:47:13.279Z,14.11
2023-04-19T14:49:41.411Z,14.33
2023-04-19T14:52:09.078Z,14.51
2023-04-19T14:54:36.696Z,14.11
2023-04-19T14:57:04.430Z,14.22
2023-04-19T14:59:32.054Z,14.70
2023-04-19T15:02:01.034Z,14.45
2023-04-19T15:04:28.889Z,14.37
2023-04-19T15:06:56.618Z,14.73
2023-04-19T15:09:24.297Z,14.23
2023-04-19T15:11:51.936Z,14.95
2023-04-19T15:14:19.855Z,14.78
2023-04-19T15:16:47.534Z,14.97
2023-04-19T15:19:16.844Z,13.83
2023-04-19T15:21:44.890Z,13.74
2023-04-19T15:24:12.628Z,13.93
2023-04-19T15:26:41.725Z,14.45
2023-04-19T15:29:11.279Z,14.24
2023-04-19T15:31:38.979Z,14.09
2023-04-19T15:34:06.840Z,14.32
2023-04-19T15:36:36.186Z,14.06
2023-04-19T15:39:04.281Z,13.94
2023-04-19T15:41:31.900Z,14.60
2023-04-19T15:43:59.623Z,14.13
2023-04-19T15:46:27.356Z,13.63
2023-04-19T15:48:55.033Z,13.61
2023-04-19T15:51:22.690Z,14.06
2023-04-19T15:53:52.235Z,13.94
2023-04-19T15:56:19.891Z,13.68
2023-04-19T15:58:47.586Z,13.58
2023-04-19T16:01:17.046Z,13.75
2023-04-19T16:03:46.828Z,13.73
2023-04-19T16:06:14.867Z,13.90
2023-04-19T16:08:42.454Z,13.70
2023-04-19T16:11:11.525Z,13.77
2023-04-19T16:13:39.252Z,13.82
2023-04-19T16:16:07.702Z,13.78
2023-04-19T16:18:35.423Z,13.96
2023-04-19T16:21:04.184Z,13.71
2023-04-19T16:23:31.848Z,13.78
2023-04-19T16:25:59.448Z,13.69
2023-04-19T16:28:29.167Z,13.61
2023-04-19T16:30:56.805Z,13.58
2023-04-19T16:33:24.511Z,13.93
2023-04-19T16:35:52.134Z,14.17
2023-04-19T16:38:19.761Z,13.97
2023-04-19T16:40:48.558Z,14.10
2023-04-19T16:43:16.229Z,14.03
2023-04-19T16:45:45.254Z,14.10
2023-04-19T16:48:13.317Z,13.92
2023-04-19T16:50:44.323Z,13.50
2023-04-19T16:53:12.108Z,13.65
2023-04-19T16:55:39.874Z,13.83
2023-04-19T16:58:07.579Z,14.77
2023-04-19T17:00:35.277Z,13.86
2023-04-19T17:03:04.431Z,13.37
2023-04-19T17:05:32.178Z,13.12
2023-04-19T17:07:59.789Z,13.08
2023-04-19T17:10:28.594Z,13.11
2023-04-19T17:12:56.332Z,13.14
2023-04-19T17:15:24.181Z,13.46
2023-04-19T17:17:51.907Z,13.54
2023-04-19T17:20:21.154Z,13.41
2023-04-19T17:22:48.834Z,13.61
2023-04-19T17:25:16.825Z,13.26
2023-04-19T17:27:44.454Z,12.66
2023-04-19T17:30:12.880Z,13.26
2023-04-19T17:32:40.605Z,13.15
2023-04-19T17:35:09.146Z,13.36
2023-04-19T17:37:38.182Z,13.19
2023-04-19T17:40:07.125Z,12.89
2023-04-19T17:42:34.765Z,13.63
2023-04-19T17:45:02.481Z,12.94
2023-04-19T17:47:30.379Z,12.98
2023-04-19T17:50:07.191Z,12.83
2023-04-19T17:52:34.974Z,12.47
2023-04-19T17:55:04.885Z,13.33
2023-04-19T17:57:33.808Z,12.66
2023-04-19T18:00:04.406Z,12.55
2023-04-19T18:02:32.373Z,12.54
2023-04-19T18:05:00.243Z,12.82
2023-04-19T18:07:28.038Z,12.72
2023-04-19T18:09:55.653Z,12.33
2023-04-19T18:12:24.784Z,11.96
2023-04-19T18:14:52.449Z,12.65
2023-04-19T18:17:20.116Z,12.65
2023-04-19T18:19:47.796Z,12.09
2023-04-19T18:22:15.476Z,12.86
2023-04-19T18:24:43.795Z,12.63
2023-04-19T18:27:11.394Z,12.97
2023-04-19T18:29:40.473Z,12.36
2023-04-19T18:32:08.300Z,11.98
2023-04-19T18:34:35.967Z,11.95
2023-04-19T18:37:05.056Z,12.25
2023-04-19T18:39:32.681Z,11.84
2023-04-19T18:42:00.355Z,12.34
2023-04-19T18:44:49.664Z,12.11
2023-04-19T18:47:16.944Z,12.00
2023-04-19T18:49:55.681Z,12.58
2023-04-19T18:52:30.788Z,11.99
2023-04-19T18:54:58.514Z,11.51
2023-04-19T18:57:27.453Z,11.54
2023-04-19T18:59:56.748Z,12.35
2023-04-19T19:02:27.404Z,12.07
2023-04-19T19:04:57.615Z,12.23
2023-04-19T19:07:36.419Z,12.35
2023-04-19T19:10:17.113Z,11.56
2023-04-19T19:12:48.709Z,11.90
2023-04-19T19:15:16.755Z,11.76
2023-04-19T19:17:49.324Z,12.33
2023-04-19T19:20:18.475Z,12.10
2023-04-19T19:22:46.476Z,11.71
2023-04-19T19:25:14.133Z,12.15
2023-04-19T19:27:50.172Z,11.88
2023-04-19T19:30:33.447Z,12.32
2023-04-19T19:33:02.941Z,11.69
2023-04-19T19:35:30.757Z,12.77
2023-04-19T19:37:58.422Z,11.95
2023-04-19T19:40:26.968Z,11.67
2023-04-19T19:42:58.526Z,11.48
2023-04-19T19:45:28.389Z,11.89
2023-04-19T19:47:58.802Z,11.76
2023-04-19T19:52:59.016Z,11.41
2023-04-19T19:55:26.769Z,11.78
2023-04-19T20:00:41.840Z,10.60
2023-04-19T20:03:13.248Z,10.81
2023-04-19T20:05:42.692Z,11.13
2023-04-19T20:08:13.394Z,10.89
2023-04-19T20:10:43.730Z,10.82
2023-04-19T20:13:12.978Z,10.96
2023-04-19T20:15:41.526Z,10.97
2023-04-19T20:18:09.194Z,10.84
2023-04-19T20:20:37.395Z,10.89
2023-04-19T20:23:06.598Z,10.94
2023-04-19T20:25:34.241Z,10.97
2023-04-19T20:28:02.323Z,11.08
2023-04-19T20:30:30.021Z,10.85
2023-04-19T20:32:58.011Z,11.87
2023-04-19T20:35:25.758Z,11.15
2023-04-19T20:37:54.667Z,11.40
2023-04-19T20:40:24.197Z,11.07
2023-04-19T20:42:52.010Z,11.51
2023-04-19T20:45:20.022Z,10.65
2023-04-19T20:47:48.583Z,10.89
2023-04-19T20:50:16.258Z,11.32
2023-04-19T20:52:44.052Z,11.02
2023-04-19T20:55:11.789Z,10.27
2023-04-19T20:57:40.876Z,10.35
2023-04-19T21:00:10.020Z,10.14
2023-04-19T21:02:37.940Z,10.53
2023-04-19T21:05:06.370Z,10.41
2023-04-19T21:07:34.446Z,10.10
2023-04-19T21:10:02.077Z,10.28
2023-04-19T21:12:29.720Z,10.61
2023-04-19T21:14:58.963Z,10.55
2023-04-19T21:17:27.068Z,10.24
2023-04-19T21:19:54.774Z,10.63
2023-04-19T21:22:22.574Z,10.62
2023-04-19T21:24:50.230Z,11.40
2023-04-19T21:27:17.915Z,11.31
2023-04-19T21:29:45.535Z,10.69
2023-04-19T21:32:14.545Z,11.09
2023-04-19T21:34:42.308Z,10.71
2023-04-19T21:37:09.906Z,11.23
2023-04-19T21:39:37.550Z,11.19
2023-04-19T21:42:05.301Z,11.11
2023-04-19T21:44:34.301Z,10.97
2023-04-19T21:47:02.173Z,11.21
2023-04-19T21:49:31.616Z,11.03
2023-04-19T21:51:59.239Z,10.77
2023-04-19T21:54:33.556Z,11.22
2023-04-19T21:57:02.996Z,11.22
2023-04-19T21:59:31.334Z,11.42
2023-04-19T22:01:59.645Z,11.83
2023-04-19T22:04:31.268Z,11.81
2023-04-19T22:07:02.648Z,11.32
2023-04-19T22:09:31.108Z,11.66
2023-04-19T22:12:00.031Z,12.17
2023-04-19T22:14:28.266Z,11.34
2023-04-19T22:16:56.616Z,11.57
2023-04-19T22:19:24.893Z,11.55
2023-04-19T22:21:53.355Z,12.04
2023-04-19T22:24:22.827Z,11.31
2023-04-19T22:26:53.059Z,11.40
2023-04-19T22:29:21.404Z,11.08
2023-04-19T22:31:49.067Z,10.55
2023-04-19T22:34:16.857Z,10.84
2023-04-19T22:36:44.554Z,10.43
2023-04-19T22:39:12.202Z,10.26
2023-04-19T22:41:41.335Z,10.57
2023-04-19T22:44:09.007Z,10.30
2023-04-19T22:46:37.421Z,10.32
2023-04-19T22:49:05.223Z,10.55
2023-04-19T22:51:34.070Z,10.44
2023-04-19T22:54:02.895Z,10.82
2023-04-19T22:56:30.814Z,10.70
2023-04-19T22:58:59.911Z,10.81
2023-04-19T23:01:27.630Z,10.51
2023-04-19T23:03:55.325Z,10.84
2023-04-19T23:06:23.477Z,10.18
2023-04-19T23:08:51.526Z,10.62
2023-04-19T23:11:19.163Z,10.80
2023-04-19T23:13:47.348Z,10.66
2023-04-19T23:16:16.869Z,10.09
2023-04-19T23:18:45.176Z,10.78
2023-04-19T23:21:12.977Z,10.18
2023-04-19T23:23:40.707Z,10.58
2023-04-19T23:26:08.556Z,10.34
2023-04-19T23:28:36.278Z,10.06
2023-04-19T23:31:04.034Z,10.48
2023-04-19T23:33:33.059Z,10.24
2023-04-19T23:36:00.719Z,10.50
2023-04-19T23:38:28.331Z,9.98
2023-04-19T23:40:56.018Z,10.19
2023-04-19T23:43:23.641Z,10.85
2023-04-19T23:45:51.292Z,10.77
2023-04-19T23:48:18.923Z,9.96
2023-04-19T23:51:01.883Z,10.31
2023-04-19T23:53:29.535Z,10.62
2023-04-19T23:55:57.177Z,9.82
2023-04-19T23:58:24.789Z,10.54
